createdAt,value
2023-05-05T00:01:02.539Z,9.48
2023-05-05T00:03:30.826Z,9.38
2023-05-05T00:05:59.056Z,9.14
2023-05-05T00:08:28.954Z,9.27
2023-05-05T00:10:57.689Z,9.41
2023-05-05T00:13:25.954Z,9.22
2023-05-05T00:15:54.731Z,9.34
2023-05-05T00:18:23.279Z,9.30
2023-05-05T00:20:51.571Z,9.23
2023-05-05T00:23:20.687Z,9.20
2023-05-05T00:25:50.163Z,9.33
2023-05-05T00:28:18.574Z,9.23
2023-05-05T00:30:46.933Z,9.07
2023-05-05T00:33:15.277Z,9.27
2023-05-05T00:35:43.516Z,8.96
2023-05-05T00:38:11.693Z,9.05
2023-05-05T00:40:39.916Z,9.08
2023-05-05T00:43:09.561Z,9.05
2023-05-05T00:45:39.078Z,8.84
2023-05-05T00:48:07.735Z,8.95
2023-05-05T00:50:36.424Z,8.63
2023-05-05T00:53:06.148Z,8.83
2023-05-05T00:55:35.575Z,8.62
2023-05-05T00:58:04.268Z,8.82
2023-05-05T01:00:35.258Z,8.47
2023-05-05T01:03:05.481Z,8.73
2023-05-05T01:05:43.510Z,8.77
2023-05-05T01:08:28.572Z,8.78
2023-05-05T01:11:03.955Z,8.81
2023-05-05T01:13:43.703Z,8.72
2023-05-05T01:16:19.620Z,8.74
2023-05-05T01:18:54.300Z,8.73
2023-05-05T01:21:29.481Z,8.84
2023-05-05T01:24:49.416Z,8.74
2023-05-05T01:27:34.056Z,8.54
2023-05-05T01:30:18.013Z,8.31
2023-05-05T01:32:51.799Z,8.33
2023-05-05T01:35:23.795Z,8.06
2023-05-05T01:38:00.180Z,8.27
2023-05-05T01:40:34.512Z,7.99
2023-05-05T01:43:04.722Z,8.28
2023-05-05T01:45:36.600Z,8.13
2023-05-05T01:48:09.049Z,8.20
2023-05-05T01:50:38.470Z,8.23
2023-05-05T01:53:09.522Z,7.91
2023-05-05T01:55:39.905Z,8.31
2023-05-05T01:58:09.142Z,8.53
2023-05-05T02:00:37.539Z,8.49
2023-05-05T02:03:08.959Z,7.93
2023-05-05T02:05:39.498Z,8.20
2023-05-05T02:08:10.025Z,8.14
2023-05-05T02:10:40.812Z,8.07
2023-05-05T02:13:12.427Z,8.24
2023-05-05T02:15:41.441Z,8.20
2023-05-05T02:18:13.302Z,8.41
2023-05-05T02:20:42.268Z,8.48
2023-05-05T02:23:10.995Z,8.30
2023-05-05T02:25:42.517Z,8.37
2023-05-05T02:28:16.473Z,8.47
2023-05-05T02:30:45.355Z,8.49
2023-05-05T02:33:21.270Z,8.20
2023-05-05T02:35:54.397Z,8.33
2023-05-05T02:38:29.626Z,8.36
2023-05-05T02:41:04.412Z,8.22
2023-05-05T02:43:34.027Z,8.05
2023-05-05T02:46:02.652Z,8.20
2023-05-05T02:48:33.975Z,8.14
2023-05-05T02:51:03.505Z,8.11
2023-05-05T02:53:36.379Z,8.06
2023-05-05T02:56:11.588Z,8.11
2023-05-05T02:58:52.922Z,8.12
2023-05-05T03:01:30.337Z,8.16
2023-05-05T03:04:10.226Z,8.08
2023-05-05T03:06:50.012Z,8.17
2023-05-05T03:09:26.841Z,8.00
2023-05-05T03:12:02.036Z,7.51
2023-05-05T03:14:35.982Z,7.65
2023-05-05T03:17:07.154Z,7.75
2023-05-05T03:19:39.828Z,7.93
2023-05-05T03:22:08.437Z,7.86
2023-05-05T03:24:38.024Z,7.88
2023-05-05T03:27:10.177Z,7.79
2023-05-05T03:29:40.797Z,7.87
2023-05-05T03:32:13.372Z,7.83
2023-05-05T03:34:44.026Z,7.77
2023-05-05T03:37:12.296Z,7.83
2023-05-05T03:39:42.251Z,7.74
2023-05-05T03:42:11.805Z,7.70
2023-05-05T03:44:41.488Z,7.79
2023-05-05T03:47:09.739Z,7.91
2023-05-05T03:49:40.099Z,7.96
2023-05-05T03:52:11.133Z,7.89
2023-05-05T03:54:40.676Z,7.91
2023-05-05T03:57:08.924Z,7.91
2023-05-05T03:59:37.108Z,7.85
2023-05-05T04:02:05.359Z,8.04
2023-05-05T04:04:33.790Z,7.98
2023-05-05T04:07:02.025Z,7.89
2023-05-05T04:09:31.804Z,7.93
2023-05-05T04:12:00.027Z,7.95
2023-05-05T04:14:28.952Z,7.91
2023-05-05T04:16:57.559Z,7.85
2023-05-05T04:19:26.178Z,7.93
2023-05-05T04:21:54.595Z,7.78
2023-05-05T04:24:24.758Z,7.76
2023-05-05T04:26:56.087Z,7.95
2023-05-05T04:29:24.515Z,8.17
2023-05-05T04:31:53.917Z,8.25
2023-05-05T04:34:22.370Z,8.11
2023-05-05T04:36:51.967Z,8.16
2023-05-05T04:39:21.569Z,8.18
2023-05-05T04:41:50.786Z,8.20
2023-05-05T04:44:20.720Z,8.32
2023-05-05T04:46:48.963Z,8.41
2023-05-05T04:49:17.673Z,8.49
2023-05-05T04:51:46.589Z,8.39
2023-05-05T04:54:15.033Z,8.55
2023-05-05T04:56:45.207Z,8.72
2023-05-05T04:59:13.470Z,8.74
2023-05-05T05:01:43.288Z,8.95
2023-05-05T05:04:11.587Z,8.93
2023-05-05T05:06:40.080Z,9.17
2023-05-05T05:09:08.373Z,9.55
2023-05-05T05:11:36.511Z,9.52
2023-05-05T05:14:04.671Z,9.52
2023-05-05T05:16:33.044Z,9.56
2023-05-05T05:19:02.907Z,9.72
2023-05-05T05:21:32.904Z,9.82
2023-05-05T05:24:01.615Z,9.61
2023-05-05T05:26:31.050Z,9.95
2023-05-05T05:28:59.280Z,10.12
2023-05-05T05:31:27.584Z,10.10
2023-05-05T05:33:56.561Z,10.09
2023-05-05T05:36:27.325Z,10.21
2023-05-05T05:38:56.474Z,10.12
2023-05-05T05:41:24.957Z,10.04
2023-05-05T05:43:53.495Z,10.23
2023-05-05T05:46:21.826Z,10.35
2023-05-05T05:48:50.212Z,10.43
2023-05-05T05:51:19.094Z,10.38
2023-05-05T05:53:51.877Z,10.51
2023-05-05T05:56:21.511Z,10.53
2023-05-05T05:58:49.795Z,10.91
2023-05-05T06:01:18.672Z,10.96
2023-05-05T06:03:47.724Z,10.59
2023-05-05T06:06:16.394Z,10.75
2023-05-05T06:08:46.030Z,10.96
2023-05-05T06:11:15.992Z,10.90
2023-05-05T06:13:44.262Z,10.94
2023-05-05T06:16:12.677Z,11.06
2023-05-05T06:18:43.148Z,11.38
2023-05-05T06:21:12.186Z,11.22
2023-05-05T06:23:40.757Z,10.91
2023-05-05T06:26:09.157Z,11.40
2023-05-05T06:28:39.308Z,11.46
2023-05-05T06:31:07.796Z,11.64
2023-05-05T06:33:36.072Z,11.82
2023-05-05T06:36:04.644Z,11.13
2023-05-05T06:38:32.787Z,11.56
2023-05-05T06:41:00.967Z,11.75
2023-05-05T06:43:29.917Z,11.77
2023-05-05T06:46:02.499Z,11.59
2023-05-05T06:48:30.712Z,11.90
2023-05-05T06:50:58.869Z,11.62
2023-05-05T06:53:27.382Z,12.04
2023-05-05T06:55:55.555Z,12.02
2023-05-05T06:58:23.779Z,12.41
2023-05-05T07:00:54.133Z,12.74
2023-05-05T07:03:24.006Z,12.77
2023-05-05T07:05:53.831Z,12.92
2023-05-05T07:08:24.358Z,12.90
2023-05-05T07:10:52.970Z,13.12
2023-05-05T07:13:22.226Z,12.57
2023-05-05T07:15:50.464Z,12.62
2023-05-05T07:18:20.361Z,12.73
2023-05-05T07:20:49.983Z,12.74
2023-05-05T07:23:18.316Z,12.57
2023-05-05T07:25:46.709Z,12.52
2023-05-05T07:28:15.467Z,12.92
2023-05-05T07:30:43.697Z,13.05
2023-05-05T07:33:12.207Z,13.05
2023-05-05T07:35:40.439Z,13.39
2023-05-05T07:38:10.905Z,13.94
2023-05-05T07:40:39.452Z,13.74
2023-05-05T07:43:07.622Z,14.00
2023-05-05T07:45:35.847Z,13.51
2023-05-05T07:48:05.324Z,13.78
2023-05-05T07:50:33.599Z,13.58
2023-05-05T07:53:13.060Z,13.84
2023-05-05T07:55:44.230Z,13.87
2023-05-05T07:58:12.787Z,14.21
2023-05-05T08:00:41.026Z,14.10
2023-05-05T08:03:11.537Z,13.91
2023-05-05T08:05:40.688Z,13.80
2023-05-05T08:08:09.186Z,14.37
2023-05-05T08:10:37.420Z,14.76
2023-05-05T08:13:07.377Z,14.80
2023-05-05T08:15:35.675Z,14.23
2023-05-05T08:18:04.093Z,14.49
2023-05-05T08:20:32.590Z,14.20
2023-05-05T08:23:00.818Z,14.00
2023-05-05T08:25:29.118Z,14.23
2023-05-05T08:27:57.550Z,14.33
2023-05-05T08:30:27.167Z,14.42
2023-05-05T08:32:55.644Z,15.09
2023-05-05T08:35:23.877Z,15.23
2023-05-05T08:37:52.472Z,14.90
2023-05-05T08:40:22.096Z,15.27
2023-05-05T08:42:50.564Z,15.18
2023-05-05T08:45:18.740Z,14.99
2023-05-05T08:47:48.488Z,14.75
2023-05-05T08:50:19.078Z,14.66
2023-05-05T08:52:52.985Z,14.68
2023-05-05T08:55:25.405Z,15.10
2023-05-05T08:57:56.993Z,15.38
2023-05-05T09:00:27.149Z,15.25
2023-05-05T09:02:57.982Z,16.00
2023-05-05T09:05:27.093Z,15.88
2023-05-05T09:07:55.358Z,15.77
2023-05-05T09:10:23.576Z,15.45
2023-05-05T09:12:51.995Z,15.86
2023-05-05T09:15:20.432Z,16.22
2023-05-05T09:17:48.727Z,15.84
2023-05-05T09:20:19.512Z,16.21
2023-05-05T09:22:48.715Z,16.26
2023-05-05T09:25:18.661Z,16.49
2023-05-05T09:27:49.500Z,16.39
2023-05-05T09:30:19.157Z,16.25
2023-05-05T09:32:49.094Z,16.07
2023-05-05T09:35:19.524Z,16.11
2023-05-05T09:37:48.131Z,16.45
2023-05-05T09:40:19.648Z,16.75
2023-05-05T09:42:48.461Z,16.90
2023-05-05T09:45:27.632Z,17.11
2023-05-05T09:47:59.903Z,17.22
2023-05-05T09:50:32.575Z,17.01
2023-05-05T09:53:02.686Z,16.67
2023-05-05T09:55:32.002Z,16.77
2023-05-05T09:58:18.755Z,16.53
2023-05-05T10:00:47.535Z,16.51
2023-05-05T10:03:16.085Z,16.73
2023-05-05T10:05:53.172Z,16.78
2023-05-05T10:08:23.045Z,17.05
2023-05-05T10:10:53.244Z,17.14
2023-05-05T10:13:22.771Z,16.79
2023-05-05T10:15:52.556Z,16.80
2023-05-05T10:18:23.259Z,16.85
2023-05-05T10:20:59.071Z,16.87
2023-05-05T10:23:33.374Z,17.02
2023-05-05T10:26:04.054Z,17.18
2023-05-05T10:28:38.237Z,17.57
2023-05-05T10:31:24.513Z,17.25
2023-05-05T10:33:55.465Z,17.61
2023-05-05T10:36:25.740Z,17.61
2023-05-05T10:38:57.506Z,17.65
2023-05-05T10:41:26.163Z,17.65
2023-05-05T10:43:57.081Z,17.68
2023-05-05T10:46:26.598Z,17.39
2023-05-05T10:49:00.832Z,18.34
2023-05-05T10:51:40.494Z,18.73
2023-05-05T10:54:15.445Z,18.18
2023-05-05T10:56:44.281Z,17.97
2023-05-05T10:59:40.810Z,17.63
2023-05-05T11:02:23.498Z,18.20
2023-05-05T11:05:08.209Z,17.37
2023-05-05T11:07:38.445Z,17.52
2023-05-05T11:10:08.048Z,17.51
2023-05-05T11:13:18.651Z,18.18
2023-05-05T11:15:47.058Z,18.62
2023-05-05T11:18:44.477Z,18.81
2023-05-05T11:21:17.822Z,18.20
2023-05-05T11:23:49.608Z,18.49
2023-05-05T11:26:19.690Z,18.63
2023-05-05T11:28:59.856Z,18.73
2023-05-05T11:31:28.780Z,18.42
2023-05-05T11:34:27.693Z,18.38
2023-05-05T11:37:02.587Z,18.05
2023-05-05T11:39:41.544Z,18.23
2023-05-05T11:42:24.721Z,18.64
2023-05-05T11:44:53.521Z,18.43
2023-05-05T11:47:29.884Z,18.48
2023-05-05T11:49:58.708Z,18.36
2023-05-05T11:52:30.879Z,18.40
2023-05-05T11:55:03.810Z,18.39
2023-05-05T11:57:32.102Z,18.66
2023-05-05T12:00:02.266Z,19.05
2023-05-05T12:02:32.861Z,18.45
2023-05-05T12:05:01.737Z,18.64
2023-05-05T12:07:31.664Z,18.35
2023-05-05T12:10:00.941Z,18.01
2023-05-05T12:12:38.498Z,17.94
2023-05-05T12:15:09.231Z,18.32
2023-05-05T12:17:40.769Z,18.83
2023-05-05T12:20:11.280Z,18.18
2023-05-05T12:22:40.479Z,17.80
2023-05-05T12:25:09.868Z,17.88
2023-05-05T12:27:39.584Z,17.75
2023-05-05T12:30:16.338Z,18.00
2023-05-05T12:32:45.014Z,18.02
2023-05-05T12:35:14.498Z,17.90
2023-05-05T12:37:43.400Z,17.96
2023-05-05T12:40:41.940Z,17.97
2023-05-05T12:43:11.896Z,18.03
2023-05-05T12:45:40.114Z,18.28
2023-05-05T12:48:22.411Z,18.49
2023-05-05T12:50:50.918Z,18.89
2023-05-05T12:53:22.766Z,18.87
2023-05-05T12:55:51.378Z,18.82
2023-05-05T12:58:21.558Z,18.74
2023-05-05T13:01:10.933Z,18.85
2023-05-05T13:03:39.101Z,18.40
2023-05-05T13:06:20.481Z,18.17
2023-05-05T13:08:48.724Z,18.60
2023-05-05T13:11:16.938Z,18.31
2023-05-05T13:13:46.602Z,18.42
2023-05-05T13:16:14.805Z,18.49
2023-05-05T13:18:46.402Z,18.66
2023-05-05T13:21:14.796Z,18.40
2023-05-05T13:23:43.970Z,18.56
2023-05-05T13:26:12.317Z,18.27
2023-05-05T13:28:40.681Z,18.64
2023-05-05T13:31:10.412Z,18.59
2023-05-05T13:33:38.744Z,18.43
2023-05-05T13:36:07.211Z,18.62
2023-05-05T13:38:36.517Z,18.46
2023-05-05T13:41:05.094Z,18.44
2023-05-05T13:43:33.380Z,18.51
2023-05-05T13:46:16.084Z,18.38
2023-05-05T13:48:49.077Z,18.48
2023-05-05T13:51:17.277Z,18.43
2023-05-05T13:53:45.956Z,18.64
2023-05-05T13:56:14.828Z,18.85
2023-05-05T13:58:43.393Z,18.76
2023-05-05T14:01:11.958Z,19.05
2023-05-05T14:03:40.506Z,19.13
2023-05-05T14:06:10.295Z,18.74
2023-05-05T14:08:38.622Z,18.86
2023-05-05T14:11:06.889Z,19.35
2023-05-05T14:13:35.211Z,19.22
2023-05-05T14:16:03.403Z,18.89
2023-05-05T14:18:31.600Z,18.83
2023-05-05T14:20:59.804Z,18.65
2023-05-05T14:23:29.373Z,18.94
2023-05-05T14:25:57.657Z,19.23
2023-05-05T14:28:25.881Z,19.15
2023-05-05T14:30:54.245Z,19.18
2023-05-05T14:33:23.161Z,19.25
2023-05-05T14:35:51.342Z,18.88
2023-05-05T14:38:19.629Z,19.44
2023-05-05T14:40:49.245Z,19.30
2023-05-05T14:43:17.488Z,18.90
2023-05-05T14:45:45.899Z,19.33
2023-05-05T14:48:14.112Z,19.46
2023-05-05T14:50:42.566Z,19.21
2023-05-05T14:53:10.870Z,19.25
2023-05-05T14:55:39.515Z,19.42
2023-05-05T14:58:09.051Z,19.57
2023-05-05T15:00:37.223Z,19.32
2023-05-05T15:03:05.578Z,19.45
2023-05-05T15:05:33.847Z,20.18
2023-05-05T15:08:02.101Z,20.72
2023-05-05T15:10:30.411Z,20.46
2023-05-05T15:12:58.689Z,20.48
2023-05-05T15:15:28.299Z,19.99
2023-05-05T15:17:56.537Z,20.36
2023-05-05T15:20:24.801Z,19.99
2023-05-05T15:22:53.005Z,19.68
2023-05-05T15:25:21.470Z,20.23
2023-05-05T15:27:49.724Z,19.38
2023-05-05T15:30:18.155Z,18.86
2023-05-05T15:32:47.895Z,18.47
2023-05-05T15:35:16.159Z,18.55
2023-05-05T15:37:44.330Z,18.72
2023-05-05T15:40:13.061Z,18.15
2023-05-05T15:42:41.599Z,18.37
2023-05-05T15:45:12.367Z,18.41
2023-05-05T15:47:40.816Z,18.38
2023-05-05T15:50:10.987Z,18.64
2023-05-05T15:52:39.303Z,18.78
2023-05-05T15:55:08.987Z,18.80
2023-05-05T15:57:39.687Z,18.62
2023-05-05T16:00:09.572Z,18.96
2023-05-05T16:02:38.761Z,19.17
2023-05-05T16:05:08.232Z,18.51
2023-05-05T16:07:38.151Z,18.18
2023-05-05T16:10:08.183Z,18.50
2023-05-05T16:12:36.430Z,18.98
2023-05-05T16:15:05.240Z,18.98
2023-05-05T16:17:33.499Z,18.72
2023-05-05T16:20:01.767Z,19.34
2023-05-05T16:22:30.545Z,19.15
2023-05-05T16:25:00.062Z,18.33
2023-05-05T16:27:28.821Z,17.71
2023-05-05T16:29:59.546Z,17.48
2023-05-05T16:32:28.015Z,17.28
2023-05-05T16:34:56.257Z,17.16
2023-05-05T16:37:24.597Z,17.11
2023-05-05T16:39:52.728Z,16.95
2023-05-05T16:42:22.630Z,16.93
2023-05-05T16:44:50.746Z,16.87
2023-05-05T16:47:18.869Z,16.78
2023-05-05T16:49:47.167Z,16.71
2023-05-05T16:52:15.311Z,16.59
2023-05-05T16:54:43.555Z,16.52
2023-05-05T16:57:12.820Z,16.57
2023-05-05T16:59:42.644Z,16.30
2023-05-05T17:02:10.872Z,16.19
2023-05-05T17:04:39.307Z,16.12
2023-05-05T17:07:07.547Z,16.05
2023-05-05T17:09:36.500Z,15.88
2023-05-05T17:12:05.087Z,15.89
2023-05-05T17:14:33.582Z,15.85
2023-05-05T17:17:03.249Z,15.73
2023-05-05T17:19:31.445Z,15.71
2023-05-05T17:21:59.614Z,15.69
2023-05-05T17:24:27.823Z,15.53
2023-05-05T17:26:56.396Z,15.48
2023-05-05T17:29:24.791Z,15.48
2023-05-05T17:31:54.059Z,15.43
2023-05-05T17:34:23.673Z,15.36
2023-05-05T17:36:51.854Z,15.29
2023-05-05T17:39:20.025Z,15.24
2023-05-05T17:41:48.191Z,15.23
2023-05-05T17:44:16.384Z,15.16
2023-05-05T17:46:44.670Z,15.09
2023-05-05T17:49:12.809Z,15.11
2023-05-05T17:51:42.380Z,14.95
2023-05-05T17:54:10.546Z,14.95
2023-05-05T17:56:38.734Z,14.91
2023-05-05T17:59:07.192Z,14.81
2023-05-05T18:01:35.711Z,14.76
2023-05-05T18:04:03.891Z,14.77
2023-05-05T18:06:32.148Z,14.71
2023-05-05T18:09:01.658Z,14.71
2023-05-05T18:11:31.001Z,14.57
2023-05-05T18:13:59.201Z,14.50
2023-05-05T18:16:27.425Z,14.47
2023-05-05T18:18:55.614Z,14.49
2023-05-05T18:21:23.856Z,14.43
2023-05-05T18:23:57.242Z,14.40
2023-05-05T18:26:31.334Z,14.42
2023-05-05T18:28:59.532Z,14.34
2023-05-05T18:31:28.482Z,14.25
2023-05-05T18:33:56.732Z,14.31
2023-05-05T18:36:24.922Z,14.24
2023-05-05T18:38:53.065Z,14.17
2023-05-05T18:41:21.389Z,14.18
2023-05-05T18:43:50.927Z,14.15
2023-05-05T18:46:19.297Z,14.13
2023-05-05T18:48:47.517Z,13.98
2023-05-05T18:51:15.908Z,13.97
2023-05-05T18:53:44.158Z,13.89
2023-05-05T18:56:12.331Z,13.85
2023-05-05T18:58:40.505Z,13.81
2023-05-05T19:01:10.181Z,13.78
2023-05-05T19:03:38.422Z,13.78
2023-05-05T19:06:07.005Z,13.72
2023-05-05T19:08:35.184Z,13.68
2023-05-05T19:11:03.572Z,13.61
2023-05-05T19:13:31.706Z,13.61
2023-05-05T19:15:59.977Z,13.52
2023-05-05T19:18:29.521Z,13.47
2023-05-05T19:20:57.680Z,13.46
2023-05-05T19:23:25.991Z,13.47
2023-05-05T19:25:54.536Z,13.41
2023-05-05T19:28:22.810Z,13.33
2023-05-05T19:30:51.066Z,13.33
2023-05-05T19:33:19.280Z,13.31
2023-05-05T19:35:48.826Z,13.29
2023-05-05T19:38:17.319Z,13.27
2023-05-05T19:40:45.495Z,13.17
2023-05-05T19:43:13.633Z,13.21
2023-05-05T19:45:41.977Z,13.13
2023-05-05T19:48:10.221Z,13.19
2023-05-05T19:50:38.437Z,13.05
2023-05-05T19:53:07.925Z,13.07
2023-05-05T19:55:36.197Z,12.96
2023-05-05T19:58:04.354Z,12.96
2023-05-05T20:00:33.205Z,12.95
2023-05-05T20:03:02.031Z,12.94
2023-05-05T20:05:30.844Z,12.85
2023-05-05T20:07:59.016Z,12.79
2023-05-05T20:10:28.566Z,12.85
2023-05-05T20:12:56.847Z,12.74
2023-05-05T20:15:25.330Z,12.73
2023-05-05T20:17:53.705Z,12.73
2023-05-05T20:20:23.266Z,12.67
2023-05-05T20:22:51.431Z,12.65
2023-05-05T20:25:19.759Z,12.62
2023-05-05T20:27:49.501Z,12.60
2023-05-05T20:30:17.762Z,12.61
2023-05-05T20:32:46.065Z,12.55
2023-05-05T20:35:14.386Z,12.58
2023-05-05T20:37:44.962Z,12.51
2023-05-05T20:40:14.185Z,12.53
2023-05-05T20:42:42.382Z,12.44
2023-05-05T20:45:12.594Z,12.49
2023-05-05T20:47:40.888Z,12.35
2023-05-05T20:50:10.133Z,12.41
2023-05-05T20:52:38.854Z,12.38
2023-05-05T20:55:07.775Z,12.33
2023-05-05T20:57:36.195Z,12.32
2023-05-05T21:00:05.418Z,12.33
2023-05-05T21:02:35.116Z,12.36
2023-05-05T21:05:03.503Z,12.33
2023-05-05T21:07:34.132Z,12.26
2023-05-05T21:10:02.444Z,12.26
2023-05-05T21:12:31.557Z,12.24
2023-05-05T21:14:59.811Z,12.17
2023-05-05T21:17:28.891Z,12.20
2023-05-05T21:19:58.375Z,12.15
2023-05-05T21:22:26.615Z,12.17
2023-05-05T21:24:55.364Z,12.13
2023-05-05T21:27:24.855Z,12.16
2023-05-05T21:29:54.075Z,12.15
2023-05-05T21:32:22.494Z,12.08
2023-05-05T21:34:50.751Z,12.15
2023-05-05T21:37:21.641Z,12.07
2023-05-05T21:39:50.014Z,12.08
2023-05-05T21:42:18.378Z,12.00
2023-05-05T21:44:46.638Z,12.02
2023-05-05T21:47:14.845Z,12.01
2023-05-05T21:49:43.070Z,11.96
2023-05-05T21:52:11.267Z,11.94
2023-05-05T21:54:40.875Z,11.92
2023-05-05T21:57:09.083Z,11.94
2023-05-05T21:59:37.415Z,12.01
2023-05-05T22:02:05.635Z,11.93
2023-05-05T22:04:33.914Z,11.90
2023-05-05T22:07:02.095Z,11.91
2023-05-05T22:09:30.627Z,11.84
2023-05-05T22:12:00.194Z,11.90
2023-05-05T22:14:28.379Z,11.94
2023-05-05T22:16:56.679Z,11.83
2023-05-05T22:19:25.532Z,11.91
2023-05-05T22:21:54.221Z,11.86
2023-05-05T22:24:22.414Z,11.79
2023-05-05T22:26:50.554Z,11.81
2023-05-05T22:29:20.065Z,11.81
2023-05-05T22:31:48.349Z,11.81
2023-05-05T22:34:18.658Z,11.75
2023-05-05T22:36:46.903Z,11.76
2023-05-05T22:39:15.364Z,11.78
2023-05-05T22:41:43.635Z,11.80
2023-05-05T22:44:11.915Z,11.84
2023-05-05T22:46:42.098Z,11.75
2023-05-05T22:49:10.301Z,11.84
2023-05-05T22:51:39.190Z,11.88
2023-05-05T22:54:07.458Z,11.71
2023-05-05T22:56:35.865Z,11.71
2023-05-05T22:59:04.117Z,11.72
2023-05-05T23:01:33.592Z,11.71
2023-05-05T23:04:03.266Z,11.65
2023-05-05T23:06:32.206Z,11.74
2023-05-05T23:09:00.338Z,11.65
2023-05-05T23:11:28.593Z,11.62
2023-05-05T23:13:56.746Z,11.57
2023-05-05T23:16:24.960Z,11.61
2023-05-05T23:18:53.165Z,11.64
2023-05-05T23:21:22.748Z,11.64
2023-05-05T23:23:50.918Z,11.60
2023-05-05T23:26:19.101Z,11.57
2023-05-05T23:28:47.294Z,11.63
2023-05-05T23:31:15.544Z,11.61
2023-05-05T23:33:43.722Z,11.47
2023-05-05T23:36:11.906Z,11.51
2023-05-05T23:38:41.385Z,11.58
2023-05-05T23:41:09.920Z,11.52
2023-05-05T23:43:38.126Z,11.51
2023-05-05T23:46:06.528Z,11.30
2023-05-05T23:48:34.679Z,11.30
2023-05-05T23:51:02.866Z,11.12
2023-05-05T23:53:31.050Z,11.03
2023-05-05T23:56:00.530Z,10.97
2023-05-05T23:58:28.665Z,10.85
